sensor_id;sensor_type;location;lat;lon;timestamp;temperature;humidity
62575;DHT22;70119;45.638;11.714;2024-01-06T00:02:24;20.40;54.60
62575;DHT22;70119;45.638;11.714;2024-01-06T00:04:50;20.40;54.60
62575;DHT22;70119;45.638;11.714;2024-01-06T00:07:16;20.40;54.60
62575;DHT22;70119;45.638;11.714;2024-01-06T00:09:41;20.40;54.50
62575;DHT22;70119;45.638;11.714;2024-01-06T00:12:07;20.40;54.50
62575;DHT22;70119;45.638;11.714;2024-01-06T00:14:34;20.40;54.50
62575;DHT22;70119;45.638;11.714;2024-01-06T00:17:00;20.40;54.50
62575;DHT22;70119;45.638;11.714;2024-01-06T00:19:26;20.40;54.60
62575;DHT22;70119;45.638;11.714;2024-01-06T00:21:51;20.40;54.60
62575;DHT22;70119;45.638;11.714;2024-01-06T00:24:17;20.40;54.60
62575;DHT22;70119;45.638;11.714;2024-01-06T00:26:43;20.40;54.60
62575;DHT22;70119;45.638;11.714;2024-01-06T00:29:09;20.40;54.50
62575;DHT22;70119;45.638;11.714;2024-01-06T00:31:35;20.40;54.50
62575;DHT22;70119;45.638;11.714;2024-01-06T00:34:02;20.40;54.50
62575;DHT22;70119;45.638;11.714;2024-01-06T00:36:29;20.40;54.40
62575;DHT22;70119;45.638;11.714;2024-01-06T00:38:56;20.40;54.40
62575;DHT22;70119;45.638;11.714;2024-01-06T00:41:23;20.40;54.40
62575;DHT22;70119;45.638;11.714;2024-01-06T00:43:49;20.40;54.40
62575;DHT22;70119;45.638;11.714;2024-01-06T00:46:17;20.40;54.40
62575;DHT22;70119;45.638;11.714;2024-01-06T00:48:45;20.40;54.40
62575;DHT22;70119;45.638;11.714;2024-01-06T00:51:11;20.50;54.40
62575;DHT22;70119;45.638;11.714;2024-01-06T00:53:37;20.40;54.30
62575;DHT22;70119;45.638;11.714;2024-01-06T00:56:03;20.40;54.30
62575;DHT22;70119;45.638;11.714;2024-01-06T00:58:29;20.40;54.30
62575;DHT22;70119;45.638;11.714;2024-01-06T01:00:55;20.40;54.30
62575;DHT22;70119;45.638;11.714;2024-01-06T01:03:20;20.40;54.30
62575;DHT22;70119;45.638;11.714;2024-01-06T01:05:46;20.40;54.30
62575;DHT22;70119;45.638;11.714;2024-01-06T01:08:12;20.40;54.30
62575;DHT22;70119;45.638;11.714;2024-01-06T01:10:38;20.40;54.30
62575;DHT22;70119;45.638;11.714;2024-01-06T01:13:04;20.40;54.30
62575;DHT22;70119;45.638;11.714;2024-01-06T01:15:30;20.40;54.30
62575;DHT22;70119;45.638;11.714;2024-01-06T01:17:55;20.40;54.30
62575;DHT22;70119;45.638;11.714;2024-01-06T01:20:21;20.40;54.30
62575;DHT22;70119;45.638;11.714;2024-01-06T01:22:47;20.50;54.30
62575;DHT22;70119;45.638;11.714;2024-01-06T01:25:13;20.40;54.30
62575;DHT22;70119;45.638;11.714;2024-01-06T01:27:39;20.40;54.20
62575;DHT22;70119;45.638;11.714;2024-01-06T01:30:05;20.50;54.20
62575;DHT22;70119;45.638;11.714;2024-01-06T01:32:32;20.40;54.20
62575;DHT22;70119;45.638;11.714;2024-01-06T01:34:58;20.50;54.30
62575;DHT22;70119;45.638;11.714;2024-01-06T01:37:24;20.40;54.20
62575;DHT22;70119;45.638;11.714;2024-01-06T01:39:49;20.40;54.20
62575;DHT22;70119;45.638;11.714;2024-01-06T01:42:15;20.40;54.20
62575;DHT22;70119;45.638;11.714;2024-01-06T01:44:41;20.40;54.20
62575;DHT22;70119;45.638;11.714;2024-01-06T01:47:07;20.40;54.20
62575;DHT22;70119;45.638;11.714;2024-01-06T01:49:33;20.40;54.20
62575;DHT22;70119;45.638;11.714;2024-01-06T01:51:59;20.40;54.20
62575;DHT22;70119;45.638;11.714;2024-01-06T01:54:25;20.40;54.20
62575;DHT22;70119;45.638;11.714;2024-01-06T01:56:52;20.40;54.20
62575;DHT22;70119;45.638;11.714;2024-01-06T01:59:18;20.40;54.20
62575;DHT22;70119;45.638;11.714;2024-01-06T02:01:45;20.40;54.20
62575;DHT22;70119;45.638;11.714;2024-01-06T02:04:12;20.40;54.20
62575;DHT22;70119;45.638;11.714;2024-01-06T02:06:38;20.40;54.20
62575;DHT22;70119;45.638;11.714;2024-01-06T02:09:04;20.40;54.20
62575;DHT22;70119;45.638;11.714;2024-01-06T02:11:31;20.40;54.20
62575;DHT22;70119;45.638;11.714;2024-01-06T02:13:57;20.40;54.10
62575;DHT22;70119;45.638;11.714;2024-01-06T02:16:22;20.40;54.10
62575;DHT22;70119;45.638;11.714;2024-01-06T02:18:48;20.40;54.10
62575;DHT22;70119;45.638;11.714;2024-01-06T02:21:15;20.40;54.10
62575;DHT22;70119;45.638;11.714;2024-01-06T02:23:41;20.40;54.10
62575;DHT22;70119;45.638;11.714;2024-01-06T02:26:07;20.40;54.10
62575;DHT22;70119;45.638;11.714;2024-01-06T02:28:32;20.40;54.10
62575;DHT22;70119;45.638;11.714;2024-01-06T02:30:58;20.40;54.10
62575;DHT22;70119;45.638;11.714;2024-01-06T02:33:24;20.40;54.10
62575;DHT22;70119;45.638;11.714;2024-01-06T02:35:50;20.30;54.00
62575;DHT22;70119;45.638;11.714;2024-01-06T02:38:16;20.40;54.10
62575;DHT22;70119;45.638;11.714;2024-01-06T02:40:42;20.40;54.00
62575;DHT22;70119;45.638;11.714;2024-01-06T02:43:11;20.40;54.10
62575;DHT22;70119;45.638;11.714;2024-01-06T02:45:36;20.40;54.10
62575;DHT22;70119;45.638;11.714;2024-01-06T02:48:02;20.30;54.00
62575;DHT22;70119;45.638;11.714;2024-01-06T02:50:28;20.30;54.10
62575;DHT22;70119;45.638;11.714;2024-01-06T02:52:54;20.30;54.00
62575;DHT22;70119;45.638;11.714;2024-01-06T02:55:20;20.40;54.00
62575;DHT22;70119;45.638;11.714;2024-01-06T02:57:46;20.30;54.10
62575;DHT22;70119;45.638;11.714;2024-01-06T03:00:12;20.30;54.00
62575;DHT22;70119;45.638;11.714;2024-01-06T03:02:38;20.30;54.10
62575;DHT22;70119;45.638;11.714;2024-01-06T03:05:08;20.30;54.10
62575;DHT22;70119;45.638;11.714;2024-01-06T03:07:34;20.30;54.10
62575;DHT22;70119;45.638;11.714;2024-01-06T03:10:00;20.30;54.00
62575;DHT22;70119;45.638;11.714;2024-01-06T03:12:26;20.30;54.00
62575;DHT22;70119;45.638;11.714;2024-01-06T03:14:51;20.30;54.10
62575;DHT22;70119;45.638;11.714;2024-01-06T03:17:18;20.30;54.00
62575;DHT22;70119;45.638;11.714;2024-01-06T03:19:44;20.30;54.00
62575;DHT22;70119;45.638;11.714;2024-01-06T03:22:10;20.30;54.00
62575;DHT22;70119;45.638;11.714;2024-01-06T03:24:36;20.30;54.00
62575;DHT22;70119;45.638;11.714;2024-01-06T03:27:02;20.30;54.00
62575;DHT22;70119;45.638;11.714;2024-01-06T03:29:28;20.20;54.00
62575;DHT22;70119;45.638;11.714;2024-01-06T03:31:54;20.30;54.00
62575;DHT22;70119;45.638;11.714;2024-01-06T03:34:20;20.30;54.00
62575;DHT22;70119;45.638;11.714;2024-01-06T03:36:46;20.30;54.00
62575;DHT22;70119;45.638;11.714;2024-01-06T03:39:11;20.30;54.00
62575;DHT22;70119;45.638;11.714;2024-01-06T03:41:38;20.30;54.00
62575;DHT22;70119;45.638;11.714;2024-01-06T03:44:04;20.30;54.00
62575;DHT22;70119;45.638;11.714;2024-01-06T03:46:30;20.30;54.00
62575;DHT22;70119;45.638;11.714;2024-01-06T03:48:56;20.30;54.00
62575;DHT22;70119;45.638;11.714;2024-01-06T03:51:22;20.30;54.00
62575;DHT22;70119;45.638;11.714;2024-01-06T03:53:48;20.20;54.00
62575;DHT22;70119;45.638;11.714;2024-01-06T03:56:14;20.30;53.90
62575;DHT22;70119;45.638;11.714;2024-01-06T03:58:39;20.20;54.00
62575;DHT22;70119;45.638;11.714;2024-01-06T04:01:05;20.30;53.90
62575;DHT22;70119;45.638;11.714;2024-01-06T04:03:31;20.30;53.90
62575;DHT22;70119;45.638;11.714;2024-01-06T04:05:57;20.20;53.90
62575;DHT22;70119;45.638;11.714;2024-01-06T04:08:23;20.20;53.90
62575;DHT22;70119;45.638;11.714;2024-01-06T04:10:49;20.20;53.90
62575;DHT22;70119;45.638;11.714;2024-01-06T04:13:15;20.20;53.90
62575;DHT22;70119;45.638;11.714;2024-01-06T04:15:41;20.20;53.90
62575;DHT22;70119;45.638;11.714;2024-01-06T04:18:07;20.20;53.90
62575;DHT22;70119;45.638;11.714;2024-01-06T04:20:35;20.20;53.90
62575;DHT22;70119;45.638;11.714;2024-01-06T04:23:00;20.20;53.90
62575;DHT22;70119;45.638;11.714;2024-01-06T04:25:26;20.20;53.90
62575;DHT22;70119;45.638;11.714;2024-01-06T04:27:52;20.20;53.90
62575;DHT22;70119;45.638;11.714;2024-01-06T04:30:18;20.20;53.90
62575;DHT22;70119;45.638;11.714;2024-01-06T04:32:46;20.20;53.90
62575;DHT22;70119;45.638;11.714;2024-01-06T04:35:14;20.20;53.90
62575;DHT22;70119;45.638;11.714;2024-01-06T04:37:40;20.20;53.90
62575;DHT22;70119;45.638;11.714;2024-01-06T04:40:07;20.20;53.90
62575;DHT22;70119;45.638;11.714;2024-01-06T04:42:33;20.20;53.90
62575;DHT22;70119;45.638;11.714;2024-01-06T04:44:59;20.20;53.90
62575;DHT22;70119;45.638;11.714;2024-01-06T04:47:25;20.20;53.90
62575;DHT22;70119;45.638;11.714;2024-01-06T04:49:52;20.20;53.90
62575;DHT22;70119;45.638;11.714;2024-01-06T04:52:18;20.10;53.90
62575;DHT22;70119;45.638;11.714;2024-01-06T04:54:43;20.20;53.90
62575;DHT22;70119;45.638;11.714;2024-01-06T04:57:09;20.20;53.90
62575;DHT22;70119;45.638;11.714;2024-01-06T04:59:35;20.20;53.90
62575;DHT22;70119;45.638;11.714;2024-01-06T05:02:01;20.20;53.90
62575;DHT22;70119;45.638;11.714;2024-01-06T05:04:27;20.10;53.90
62575;DHT22;70119;45.638;11.714;2024-01-06T05:06:54;20.20;53.90
62575;DHT22;70119;45.638;11.714;2024-01-06T05:09:20;20.20;53.90
62575;DHT22;70119;45.638;11.714;2024-01-06T05:11:46;20.20;53.80
62575;DHT22;70119;45.638;11.714;2024-01-06T05:14:12;20.20;53.80
62575;DHT22;70119;45.638;11.714;2024-01-06T05:16:38;20.20;53.80
62575;DHT22;70119;45.638;11.714;2024-01-06T05:19:04;20.20;53.80
62575;DHT22;70119;45.638;11.714;2024-01-06T05:21:30;20.20;53.70
62575;DHT22;70119;45.638;11.714;2024-01-06T05:23:56;20.20;53.80
62575;DHT22;70119;45.638;11.714;2024-01-06T05:26:22;20.20;53.70
62575;DHT22;70119;45.638;11.714;2024-01-06T05:28:48;20.20;53.80
62575;DHT22;70119;45.638;11.714;2024-01-06T05:31:14;20.20;53.80
62575;DHT22;70119;45.638;11.714;2024-01-06T05:33:40;20.10;53.80
62575;DHT22;70119;45.638;11.714;2024-01-06T05:36:06;20.20;53.80
62575;DHT22;70119;45.638;11.714;2024-01-06T05:38:32;20.20;53.80
62575;DHT22;70119;45.638;11.714;2024-01-06T05:40:58;20.10;53.80
62575;DHT22;70119;45.638;11.714;2024-01-06T05:43:24;20.20;53.80
62575;DHT22;70119;45.638;11.714;2024-01-06T05:45:50;20.20;53.80
62575;DHT22;70119;45.638;11.714;2024-01-06T05:48:16;20.20;53.80
62575;DHT22;70119;45.638;11.714;2024-01-06T05:50:42;20.20;53.80
62575;DHT22;70119;45.638;11.714;2024-01-06T05:53:08;20.10;53.80
62575;DHT22;70119;45.638;11.714;2024-01-06T05:55:34;20.20;53.80
62575;DHT22;70119;45.638;11.714;2024-01-06T05:58:00;20.20;53.80
62575;DHT22;70119;45.638;11.714;2024-01-06T06:00:26;20.10;53.80
62575;DHT22;70119;45.638;11.714;2024-01-06T06:02:52;20.10;53.80
62575;DHT22;70119;45.638;11.714;2024-01-06T06:05:18;20.20;53.80
62575;DHT22;70119;45.638;11.714;2024-01-06T06:07:45;20.10;53.70
62575;DHT22;70119;45.638;11.714;2024-01-06T06:10:11;20.20;53.70
62575;DHT22;70119;45.638;11.714;2024-01-06T06:12:38;20.20;53.70
62575;DHT22;70119;45.638;11.714;2024-01-06T06:15:05;20.20;53.70
62575;DHT22;70119;45.638;11.714;2024-01-06T06:17:32;20.20;53.70
62575;DHT22;70119;45.638;11.714;2024-01-06T06:19:58;20.20;53.70
62575;DHT22;70119;45.638;11.714;2024-01-06T06:22:25;20.20;53.70
62575;DHT22;70119;45.638;11.714;2024-01-06T06:25:01;20.20;53.70
62575;DHT22;70119;45.638;11.714;2024-01-06T06:27:26;20.20;53.70
62575;DHT22;70119;45.638;11.714;2024-01-06T06:29:54;20.20;53.70
62575;DHT22;70119;45.638;11.714;2024-01-06T06:32:20;20.20;53.60
62575;DHT22;70119;45.638;11.714;2024-01-06T06:34:45;20.20;53.60
62575;DHT22;70119;45.638;11.714;2024-01-06T06:37:11;20.20;53.60
62575;DHT22;70119;45.638;11.714;2024-01-06T06:39:37;20.20;53.60
62575;DHT22;70119;45.638;11.714;2024-01-06T06:42:03;20.20;53.70
62575;DHT22;70119;45.638;11.714;2024-01-06T06:44:30;20.20;53.70
62575;DHT22;70119;45.638;11.714;2024-01-06T06:46:56;20.20;53.70
62575;DHT22;70119;45.638;11.714;2024-01-06T06:49:22;20.20;53.70
62575;DHT22;70119;45.638;11.714;2024-01-06T06:51:48;20.20;53.70
62575;DHT22;70119;45.638;11.714;2024-01-06T06:54:15;20.10;53.80
62575;DHT22;70119;45.638;11.714;2024-01-06T06:56:44;20.20;53.80
62575;DHT22;70119;45.638;11.714;2024-01-06T06:59:10;20.20;53.80
62575;DHT22;70119;45.638;11.714;2024-01-06T07:01:37;20.10;53.80
62575;DHT22;70119;45.638;11.714;2024-01-06T07:04:03;20.20;53.80
62575;DHT22;70119;45.638;11.714;2024-01-06T07:06:30;20.20;53.80
62575;DHT22;70119;45.638;11.714;2024-01-06T07:08:56;20.10;53.80
62575;DHT22;70119;45.638;11.714;2024-01-06T07:11:23;20.20;53.80
62575;DHT22;70119;45.638;11.714;2024-01-06T07:13:50;20.20;53.70
62575;DHT22;70119;45.638;11.714;2024-01-06T07:16:18;20.20;53.70
62575;DHT22;70119;45.638;11.714;2024-01-06T07:18:48;20.20;53.80
62575;DHT22;70119;45.638;11.714;2024-01-06T07:21:17;20.20;53.80
62575;DHT22;70119;45.638;11.714;2024-01-06T07:23:44;20.10;53.80
62575;DHT22;70119;45.638;11.714;2024-01-06T07:26:14;20.20;53.80
62575;DHT22;70119;45.638;11.714;2024-01-06T07:28:45;20.20;53.80
62575;DHT22;70119;45.638;11.714;2024-01-06T07:31:14;20.20;53.80
62575;DHT22;70119;45.638;11.714;2024-01-06T07:33:43;20.20;53.80
62575;DHT22;70119;45.638;11.714;2024-01-06T07:36:11;20.20;53.80
62575;DHT22;70119;45.638;11.714;2024-01-06T07:38:38;20.20;53.80
62575;DHT22;70119;45.638;11.714;2024-01-06T07:41:06;20.20;53.80
62575;DHT22;70119;45.638;11.714;2024-01-06T07:43:36;20.20;53.70
62575;DHT22;70119;45.638;11.714;2024-01-06T07:46:08;20.20;53.80
62575;DHT22;70119;45.638;11.714;2024-01-06T07:48:35;20.20;53.80
62575;DHT22;70119;45.638;11.714;2024-01-06T07:51:01;20.20;53.80
62575;DHT22;70119;45.638;11.714;2024-01-06T07:53:29;20.20;53.80
62575;DHT22;70119;45.638;11.714;2024-01-06T07:55:55;20.20;53.80
62575;DHT22;70119;45.638;11.714;2024-01-06T07:58:21;20.20;53.80
62575;DHT22;70119;45.638;11.714;2024-01-06T08:00:47;20.20;53.80
62575;DHT22;70119;45.638;11.714;2024-01-06T08:03:13;20.20;53.80
62575;DHT22;70119;45.638;11.714;2024-01-06T08:05:39;20.20;53.80
62575;DHT22;70119;45.638;11.714;2024-01-06T08:08:05;20.20;53.80
62575;DHT22;70119;45.638;11.714;2024-01-06T08:10:31;20.10;53.90
62575;DHT22;70119;45.638;11.714;2024-01-06T08:12:57;20.20;53.90
62575;DHT22;70119;45.638;11.714;2024-01-06T08:15:24;20.20;53.90
62575;DHT22;70119;45.638;11.714;2024-01-06T08:17:50;20.20;53.80
62575;DHT22;70119;45.638;11.714;2024-01-06T08:20:16;20.10;53.80
62575;DHT22;70119;45.638;11.714;2024-01-06T08:22:42;20.20;53.80
62575;DHT22;70119;45.638;11.714;2024-01-06T08:25:07;20.20;53.80
62575;DHT22;70119;45.638;11.714;2024-01-06T08:27:34;20.10;53.80
62575;DHT22;70119;45.638;11.714;2024-01-06T08:30:01;20.20;53.90
62575;DHT22;70119;45.638;11.714;2024-01-06T08:32:27;20.20;53.90
62575;DHT22;70119;45.638;11.714;2024-01-06T08:34:53;20.10;53.90
62575;DHT22;70119;45.638;11.714;2024-01-06T08:37:19;20.20;53.90
62575;DHT22;70119;45.638;11.714;2024-01-06T08:39:45;20.10;53.90
62575;DHT22;70119;45.638;11.714;2024-01-06T08:42:11;20.20;53.90
62575;DHT22;70119;45.638;11.714;2024-01-06T08:44:36;20.10;53.90
62575;DHT22;70119;45.638;11.714;2024-01-06T08:47:02;20.20;54.00
62575;DHT22;70119;45.638;11.714;2024-01-06T08:49:28;20.20;54.00
62575;DHT22;70119;45.638;11.714;2024-01-06T08:51:54;20.20;54.00
62575;DHT22;70119;45.638;11.714;2024-01-06T08:54:20;20.20;54.00
62575;DHT22;70119;45.638;11.714;2024-01-06T08:56:46;20.10;54.00
62575;DHT22;70119;45.638;11.714;2024-01-06T08:59:13;20.20;54.00
62575;DHT22;70119;45.638;11.714;2024-01-06T09:01:38;20.20;54.00
62575;DHT22;70119;45.638;11.714;2024-01-06T09:04:04;20.10;54.00
62575;DHT22;70119;45.638;11.714;2024-01-06T09:06:32;20.20;54.00
62575;DHT22;70119;45.638;11.714;2024-01-06T09:08:58;20.20;54.00
62575;DHT22;70119;45.638;11.714;2024-01-06T09:11:23;20.20;54.00
62575;DHT22;70119;45.638;11.714;2024-01-06T09:13:49;20.20;54.00
62575;DHT22;70119;45.638;11.714;2024-01-06T09:16:18;20.20;53.90
62575;DHT22;70119;45.638;11.714;2024-01-06T09:18:44;20.20;53.90
62575;DHT22;70119;45.638;11.714;2024-01-06T09:21:10;20.20;54.00
62575;DHT22;70119;45.638;11.714;2024-01-06T09:23:36;20.20;54.00
62575;DHT22;70119;45.638;11.714;2024-01-06T09:26:03;20.20;54.00
62575;DHT22;70119;45.638;11.714;2024-01-06T09:28:28;20.20;54.00
62575;DHT22;70119;45.638;11.714;2024-01-06T09:30:54;20.20;54.00
62575;DHT22;70119;45.638;11.714;2024-01-06T09:33:22;20.20;54.00
62575;DHT22;70119;45.638;11.714;2024-01-06T09:35:48;20.20;54.00
62575;DHT22;70119;45.638;11.714;2024-01-06T09:38:17;20.20;54.00
62575;DHT22;70119;45.638;11.714;2024-01-06T09:40:44;20.20;54.00
62575;DHT22;70119;45.638;11.714;2024-01-06T09:43:10;20.20;54.00
62575;DHT22;70119;45.638;11.714;2024-01-06T09:45:38;20.20;54.00
62575;DHT22;70119;45.638;11.714;2024-01-06T09:48:12;20.20;54.00
62575;DHT22;70119;45.638;11.714;2024-01-06T09:50:43;20.20;54.00
62575;DHT22;70119;45.638;11.714;2024-01-06T09:53:13;20.20;54.00
62575;DHT22;70119;45.638;11.714;2024-01-06T09:55:40;20.30;54.00
62575;DHT22;70119;45.638;11.714;2024-01-06T09:58:09;20.30;54.00
62575;DHT22;70119;45.638;11.714;2024-01-06T10:00:36;20.30;54.00
62575;DHT22;70119;45.638;11.714;2024-01-06T10:03:01;20.30;54.00
62575;DHT22;70119;45.638;11.714;2024-01-06T10:05:27;20.30;54.00
62575;DHT22;70119;45.638;11.714;2024-01-06T10:07:53;20.20;54.10
62575;DHT22;70119;45.638;11.714;2024-01-06T10:10:19;20.20;54.10
62575;DHT22;70119;45.638;11.714;2024-01-06T10:12:45;20.30;54.10
62575;DHT22;70119;45.638;11.714;2024-01-06T10:15:12;20.30;54.10
62575;DHT22;70119;45.638;11.714;2024-01-06T10:17:39;20.20;54.10
62575;DHT22;70119;45.638;11.714;2024-01-06T10:20:12;20.30;54.10
62575;DHT22;70119;45.638;11.714;2024-01-06T10:22:41;20.30;54.10
62575;DHT22;70119;45.638;11.714;2024-01-06T10:25:11;20.30;54.10
62575;DHT22;70119;45.638;11.714;2024-01-06T10:27:41;20.20;54.10
62575;DHT22;70119;45.638;11.714;2024-01-06T10:30:09;20.20;54.20
62575;DHT22;70119;45.638;11.714;2024-01-06T10:32:36;20.30;54.20
62575;DHT22;70119;45.638;11.714;2024-01-06T10:35:03;20.30;54.20
62575;DHT22;70119;45.638;11.714;2024-01-06T10:37:30;20.20;54.20
62575;DHT22;70119;45.638;11.714;2024-01-06T10:42:37;20.30;54.30
62575;DHT22;70119;45.638;11.714;2024-01-06T10:45:07;20.30;54.20
62575;DHT22;70119;45.638;11.714;2024-01-06T10:47:35;20.30;54.30
62575;DHT22;70119;45.638;11.714;2024-01-06T10:50:01;20.30;54.30
62575;DHT22;70119;45.638;11.714;2024-01-06T10:52:28;20.30;54.30
62575;DHT22;70119;45.638;11.714;2024-01-06T10:54:55;20.30;54.40
62575;DHT22;70119;45.638;11.714;2024-01-06T10:57:21;20.30;54.40
62575;DHT22;70119;45.638;11.714;2024-01-06T10:59:51;20.30;54.40
62575;DHT22;70119;45.638;11.714;2024-01-06T11:02:17;20.30;54.40
62575;DHT22;70119;45.638;11.714;2024-01-06T11:04:45;20.30;54.50
62575;DHT22;70119;45.638;11.714;2024-01-06T11:07:15;20.30;54.50
62575;DHT22;70119;45.638;11.714;2024-01-06T11:10:10;20.30;54.50
62575;DHT22;70119;45.638;11.714;2024-01-06T11:12:32;20.30;54.50
62575;DHT22;70119;45.638;11.714;2024-01-06T11:14:59;20.40;54.60
62575;DHT22;70119;45.638;11.714;2024-01-06T11:17:55;20.40;54.70
62575;DHT22;70119;45.638;11.714;2024-01-06T11:20:24;20.30;55.10
62575;DHT22;70119;45.638;11.714;2024-01-06T11:22:51;20.30;54.80
62575;DHT22;70119;45.638;11.714;2024-01-06T11:25:19;20.30;54.90
62575;DHT22;70119;45.638;11.714;2024-01-06T11:27:49;20.30;54.90
62575;DHT22;70119;45.638;11.714;2024-01-06T11:30:25;20.40;54.90
62575;DHT22;70119;45.638;11.714;2024-01-06T11:32:52;20.40;55.00
62575;DHT22;70119;45.638;11.714;2024-01-06T11:35:20;20.40;54.90
62575;DHT22;70119;45.638;11.714;2024-01-06T11:42:48;20.40;54.90
62575;DHT22;70119;45.638;11.714;2024-01-06T11:45:23;20.40;54.80
62575;DHT22;70119;45.638;11.714;2024-01-06T11:47:54;20.40;54.80
62575;DHT22;70119;45.638;11.714;2024-01-06T11:50:20;20.40;54.80
62575;DHT22;70119;45.638;11.714;2024-01-06T11:52:46;20.40;54.80
62575;DHT22;70119;45.638;11.714;2024-01-06T11:55:12;20.40;54.90
62575;DHT22;70119;45.638;11.714;2024-01-06T11:57:38;20.40;54.80
62575;DHT22;70119;45.638;11.714;2024-01-06T12:00:05;20.40;54.80
62575;DHT22;70119;45.638;11.714;2024-01-06T12:02:31;20.40;54.80
62575;DHT22;70119;45.638;11.714;2024-01-06T12:04:57;20.40;54.80
62575;DHT22;70119;45.638;11.714;2024-01-06T12:07:23;20.40;54.80
62575;DHT22;70119;45.638;11.714;2024-01-06T12:09:50;20.40;54.80
62575;DHT22;70119;45.638;11.714;2024-01-06T12:12:16;20.40;54.80
62575;DHT22;70119;45.638;11.714;2024-01-06T12:14:43;20.40;54.80
62575;DHT22;70119;45.638;11.714;2024-01-06T12:17:10;20.40;54.80
62575;DHT22;70119;45.638;11.714;2024-01-06T12:19:36;20.50;54.80
62575;DHT22;70119;45.638;11.714;2024-01-06T12:22:03;20.50;54.80
62575;DHT22;70119;45.638;11.714;2024-01-06T12:24:29;20.40;54.80
62575;DHT22;70119;45.638;11.714;2024-01-06T12:26:56;20.40;54.80
62575;DHT22;70119;45.638;11.714;2024-01-06T12:29:28;20.40;54.70
62575;DHT22;70119;45.638;11.714;2024-01-06T12:31:55;20.50;54.70
62575;DHT22;70119;45.638;11.714;2024-01-06T12:34:21;20.40;54.70
62575;DHT22;70119;45.638;11.714;2024-01-06T12:36:48;20.50;54.70
62575;DHT22;70119;45.638;11.714;2024-01-06T12:39:18;20.50;54.70
62575;DHT22;70119;45.638;11.714;2024-01-06T12:41:44;20.50;54.70
62575;DHT22;70119;45.638;11.714;2024-01-06T12:44:10;20.50;54.70
62575;DHT22;70119;45.638;11.714;2024-01-06T12:46:36;20.50;54.60
62575;DHT22;70119;45.638;11.714;2024-01-06T12:49:02;20.50;54.60
62575;DHT22;70119;45.638;11.714;2024-01-06T12:51:28;20.50;54.60
62575;DHT22;70119;45.638;11.714;2024-01-06T12:53:54;20.50;54.50
62575;DHT22;70119;45.638;11.714;2024-01-06T12:56:20;20.50;54.50
62575;DHT22;70119;45.638;11.714;2024-01-06T12:58:46;20.60;54.50
62575;DHT22;70119;45.638;11.714;2024-01-06T13:01:12;20.60;54.40
62575;DHT22;70119;45.638;11.714;2024-01-06T13:03:38;20.60;54.40
62575;DHT22;70119;45.638;11.714;2024-01-06T13:06:04;20.60;54.40
62575;DHT22;70119;45.638;11.714;2024-01-06T13:08:30;20.60;54.30
62575;DHT22;70119;45.638;11.714;2024-01-06T13:10:56;20.60;54.30
62575;DHT22;70119;45.638;11.714;2024-01-06T13:13:22;20.60;54.30
62575;DHT22;70119;45.638;11.714;2024-01-06T13:15:48;20.60;54.30
62575;DHT22;70119;45.638;11.714;2024-01-06T13:18:14;20.60;54.30
62575;DHT22;70119;45.638;11.714;2024-01-06T13:20:42;20.60;54.20
62575;DHT22;70119;45.638;11.714;2024-01-06T13:23:09;20.60;54.20
62575;DHT22;70119;45.638;11.714;2024-01-06T13:25:37;20.60;54.20
62575;DHT22;70119;45.638;11.714;2024-01-06T13:28:07;20.60;54.20
62575;DHT22;70119;45.638;11.714;2024-01-06T13:30:33;20.60;54.20
62575;DHT22;70119;45.638;11.714;2024-01-06T13:32:59;20.60;54.10
62575;DHT22;70119;45.638;11.714;2024-01-06T13:35:25;20.60;54.20
62575;DHT22;70119;45.638;11.714;2024-01-06T13:37:54;20.60;54.10
62575;DHT22;70119;45.638;11.714;2024-01-06T13:40:23;20.60;54.10
62575;DHT22;70119;45.638;11.714;2024-01-06T13:42:50;20.60;54.10
62575;DHT22;70119;45.638;11.714;2024-01-06T13:45:18;20.60;54.10
62575;DHT22;70119;45.638;11.714;2024-01-06T13:47:44;20.60;54.10
62575;DHT22;70119;45.638;11.714;2024-01-06T13:50:17;20.60;54.10
62575;DHT22;70119;45.638;11.714;2024-01-06T13:52:43;20.60;54.10
62575;DHT22;70119;45.638;11.714;2024-01-06T13:55:11;20.60;54.10
62575;DHT22;70119;45.638;11.714;2024-01-06T13:57:37;20.60;54.10
62575;DHT22;70119;45.638;11.714;2024-01-06T14:00:10;20.60;54.20
62575;DHT22;70119;45.638;11.714;2024-01-06T14:02:37;20.60;54.10
62575;DHT22;70119;45.638;11.714;2024-01-06T14:05:04;20.60;54.10
62575;DHT22;70119;45.638;11.714;2024-01-06T14:07:30;20.60;54.10
62575;DHT22;70119;45.638;11.714;2024-01-06T14:09:56;20.60;54.10
62575;DHT22;70119;45.638;11.714;2024-01-06T14:12:23;20.60;54.10
62575;DHT22;70119;45.638;11.714;2024-01-06T14:14:48;20.60;54.10
62575;DHT22;70119;45.638;11.714;2024-01-06T14:17:14;20.60;54.10
62575;DHT22;70119;45.638;11.714;2024-01-06T14:19:41;20.60;54.10
62575;DHT22;70119;45.638;11.714;2024-01-06T14:22:07;20.60;54.10
62575;DHT22;70119;45.638;11.714;2024-01-06T14:24:33;20.60;54.10
62575;DHT22;70119;45.638;11.714;2024-01-06T14:27:01;20.60;54.10
62575;DHT22;70119;45.638;11.714;2024-01-06T14:29:26;20.60;54.10
62575;DHT22;70119;45.638;11.714;2024-01-06T14:31:52;20.60;54.10
62575;DHT22;70119;45.638;11.714;2024-01-06T14:34:18;20.60;54.10
62575;DHT22;70119;45.638;11.714;2024-01-06T14:36:46;20.60;54.20
62575;DHT22;70119;45.638;11.714;2024-01-06T14:39:15;20.60;54.20
62575;DHT22;70119;45.638;11.714;2024-01-06T14:41:44;20.60;54.20
62575;DHT22;70119;45.638;11.714;2024-01-06T14:44:09;20.60;54.20
62575;DHT22;70119;45.638;11.714;2024-01-06T14:46:41;20.60;54.20
62575;DHT22;70119;45.638;11.714;2024-01-06T14:49:08;20.60;54.20
62575;DHT22;70119;45.638;11.714;2024-01-06T14:51:34;20.60;54.20
62575;DHT22;70119;45.638;11.714;2024-01-06T14:54:00;20.60;54.20
62575;DHT22;70119;45.638;11.714;2024-01-06T14:56:26;20.60;54.20
62575;DHT22;70119;45.638;11.714;2024-01-06T14:58:52;20.60;54.10
62575;DHT22;70119;45.638;11.714;2024-01-06T15:01:18;20.60;54.10
62575;DHT22;70119;45.638;11.714;2024-01-06T15:03:44;20.60;54.10
62575;DHT22;70119;45.638;11.714;2024-01-06T15:06:11;20.60;54.00
62575;DHT22;70119;45.638;11.714;2024-01-06T15:08:38;20.60;54.00
62575;DHT22;70119;45.638;11.714;2024-01-06T15:11:04;20.60;54.00
62575;DHT22;70119;45.638;11.714;2024-01-06T15:13:30;20.60;54.00
62575;DHT22;70119;45.638;11.714;2024-01-06T15:15:59;20.60;53.90
62575;DHT22;70119;45.638;11.714;2024-01-06T15:18:25;20.60;53.90
62575;DHT22;70119;45.638;11.714;2024-01-06T15:20:50;20.60;54.00